sensor_id;sensor_type;location;lat;lon;timestamp;P1;P2;P0
62631;PMS5003;48703;51.248;-0.546;2023-02-11T00:01:38;20.33;18.99;
62631;PMS5003;48703;51.248;-0.546;2023-02-11T00:04:40;19.60;18.63;
62631;PMS5003;48703;51.248;-0.546;2023-02-11T00:07:41;18.29;17.09;
62631;PMS5003;48703;51.248;-0.546;2023-02-11T00:10:43;20.13;19.06;
62631;PMS5003;48703;51.248;-0.546;2023-02-11T00:13:44;20.03;19.26;
62631;PMS5003;48703;51.248;-0.546;2023-02-11T00:16:45;21.77;20.20;
62631;PMS5003;48703;51.248;-0.546;2023-02-11T00:19:48;22.06;20.29;
62631;PMS5003;48703;51.248;-0.546;2023-02-11T00:22:49;20.09;18.00;
62631;PMS5003;48703;51.248;-0.546;2023-02-11T00:25:50;19.96;18.72;
62631;PMS5003;48703;51.248;-0.546;2023-02-11T00:28:51;20.81;18.86;
62631;PMS5003;48703;51.248;-0.546;2023-02-11T00:31:52;20.46;18.71;
62631;PMS5003;48703;51.248;-0.546;2023-02-11T00:34:54;19.49;17.60;
62631;PMS5003;48703;51.248;-0.546;2023-02-11T00:37:55;20.42;19.59;
62631;PMS5003;48703;51.248;-0.546;2023-02-11T00:40:56;16.97;16.71;
62631;PMS5003;48703;51.248;-0.546;2023-02-11T00:43:58;21.36;19.24;
62631;PMS5003;48703;51.248;-0.546;2023-02-11T00:46:59;20.71;19.51;
62631;PMS5003;48703;51.248;-0.546;2023-02-11T00:50:00;20.97;19.99;
62631;PMS5003;48703;51.248;-0.546;2023-02-11T00:53:02;20.91;17.79;
62631;PMS5003;48703;51.248;-0.546;2023-02-11T00:56:04;21.78;19.39;
62631;PMS5003;48703;51.248;-0.546;2023-02-11T00:59:05;17.76;16.76;
62631;PMS5003;48703;51.248;-0.546;2023-02-11T01:02:06;20.01;18.93;
62631;PMS5003;48703;51.248;-0.546;2023-02-11T01:05:07;18.61;17.74;
62631;PMS5003;48703;51.248;-0.546;2023-02-11T01:08:09;20.61;18.37;
62631;PMS5003;48703;51.248;-0.546;2023-02-11T01:11:11;19.58;17.97;
62631;PMS5003;48703;51.248;-0.546;2023-02-11T01:14:11;18.41;17.51;
62631;PMS5003;48703;51.248;-0.546;2023-02-11T01:17:12;18.43;17.26;
62631;PMS5003;48703;51.248;-0.546;2023-02-11T01:20:14;19.00;17.96;
62631;PMS5003;48703;51.248;-0.546;2023-02-11T01:23:15;18.65;17.07;
62631;PMS5003;48703;51.248;-0.546;2023-02-11T01:26:16;16.83;15.24;
62631;PMS5003;48703;51.248;-0.546;2023-02-11T01:29:18;16.31;14.87;
62631;PMS5003;48703;51.248;-0.546;2023-02-11T01:32:19;18.33;16.22;
62631;PMS5003;48703;51.248;-0.546;2023-02-11T01:35:21;16.07;14.64;
62631;PMS5003;48703;51.248;-0.546;2023-02-11T01:38:24;16.04;15.07;
62631;PMS5003;48703;51.248;-0.546;2023-02-11T01:41:25;15.36;15.36;
62631;PMS5003;48703;51.248;-0.546;2023-02-11T01:44:28;14.51;13.74;
62631;PMS5003;48703;51.248;-0.546;2023-02-11T01:47:28;15.10;14.30;
62631;PMS5003;48703;51.248;-0.546;2023-02-11T01:50:30;15.83;14.86;
62631;PMS5003;48703;51.248;-0.546;2023-02-11T01:53:31;17.06;15.74;
62631;PMS5003;48703;51.248;-0.546;2023-02-11T01:56:33;15.37;14.21;
62631;PMS5003;48703;51.248;-0.546;2023-02-11T01:59:37;13.89;13.67;
62631;PMS5003;48703;51.248;-0.546;2023-02-11T02:02:41;14.60;13.61;
62631;PMS5003;48703;51.248;-0.546;2023-02-11T02:05:39;15.06;14.76;
62631;PMS5003;48703;51.248;-0.546;2023-02-11T02:08:39;13.33;13.04;
62631;PMS5003;48703;51.248;-0.546;2023-02-11T02:11:41;16.57;15.14;
62631;PMS5003;48703;51.248;-0.546;2023-02-11T02:14:42;13.93;13.60;
62631;PMS5003;48703;51.248;-0.546;2023-02-11T02:17:46;12.16;12.01;
62631;PMS5003;48703;51.248;-0.546;2023-02-11T02:20:51;14.59;13.00;
62631;PMS5003;48703;51.248;-0.546;2023-02-11T02:23:10;14.19;12.60;
62631;PMS5003;48703;51.248;-0.546;2023-02-11T02:28:00;13.60;13.23;
62631;PMS5003;48703;51.248;-0.546;2023-02-11T02:28:57;14.39;13.30;
62631;PMS5003;48703;51.248;-0.546;2023-02-11T02:31:57;12.27;11.81;
62631;PMS5003;48703;51.248;-0.546;2023-02-11T02:34:55;13.37;12.43;
62631;PMS5003;48703;51.248;-0.546;2023-02-11T02:37:56;16.39;13.90;
62631;PMS5003;48703;51.248;-0.546;2023-02-11T02:40:58;13.84;12.19;
62631;PMS5003;48703;51.248;-0.546;2023-02-11T02:43:59;15.25;12.99;
62631;PMS5003;48703;51.248;-0.546;2023-02-11T02:47:00;14.75;14.49;
62631;PMS5003;48703;51.248;-0.546;2023-02-11T02:50:02;14.23;13.24;
62631;PMS5003;48703;51.248;-0.546;2023-02-11T02:53:08;14.67;13.20;
62631;PMS5003;48703;51.248;-0.546;2023-02-11T02:56:05;14.74;13.33;
62631;PMS5003;48703;51.248;-0.546;2023-02-11T02:59:11;14.96;13.41;
62631;PMS5003;48703;51.248;-0.546;2023-02-11T03:02:09;14.06;13.20;
62631;PMS5003;48703;51.248;-0.546;2023-02-11T03:05:10;15.13;14.42;
62631;PMS5003;48703;51.248;-0.546;2023-02-11T03:08:11;14.21;13.54;
62631;PMS5003;48703;51.248;-0.546;2023-02-11T03:11:13;14.16;12.70;
62631;PMS5003;48703;51.248;-0.546;2023-02-11T03:14:14;15.29;11.94;
62631;PMS5003;48703;51.248;-0.546;2023-02-11T03:17:15;13.21;12.34;
62631;PMS5003;48703;51.248;-0.546;2023-02-11T03:20:17;15.41;13.58;
62631;PMS5003;48703;51.248;-0.546;2023-02-11T03:23:18;14.73;12.80;
62631;PMS5003;48703;51.248;-0.546;2023-02-11T03:26:21;14.41;12.54;
62631;PMS5003;48703;51.248;-0.546;2023-02-11T03:29:24;12.70;12.37;
62631;PMS5003;48703;51.248;-0.546;2023-02-11T03:32:24;14.14;13.46;
62631;PMS5003;48703;51.248;-0.546;2023-02-11T03:35:25;14.46;12.60;
62631;PMS5003;48703;51.248;-0.546;2023-02-11T03:38:27;13.97;12.13;
62631;PMS5003;48703;51.248;-0.546;2023-02-11T03:41:27;14.29;11.77;
62631;PMS5003;48703;51.248;-0.546;2023-02-11T03:44:30;13.59;12.83;
62631;PMS5003;48703;51.248;-0.546;2023-02-11T03:47:30;12.90;11.96;
62631;PMS5003;48703;51.248;-0.546;2023-02-11T03:50:32;10.93;10.54;
62631;PMS5003;48703;51.248;-0.546;2023-02-11T03:53:33;12.91;11.59;
62631;PMS5003;48703;51.248;-0.546;2023-02-11T03:56:37;13.77;11.76;
62631;PMS5003;48703;51.248;-0.546;2023-02-11T03:59:53;14.56;12.11;
62631;PMS5003;48703;51.248;-0.546;2023-02-11T04:02:38;16.06;12.39;
62631;PMS5003;48703;51.248;-0.546;2023-02-11T04:05:40;12.29;10.53;
62631;PMS5003;48703;51.248;-0.546;2023-02-11T04:08:41;12.94;12.61;
62631;PMS5003;48703;51.248;-0.546;2023-02-11T04:11:42;15.16;13.70;
62631;PMS5003;48703;51.248;-0.546;2023-02-11T04:14:44;14.78;13.16;
62631;PMS5003;48703;51.248;-0.546;2023-02-11T04:17:45;13.67;12.16;
62631;PMS5003;48703;51.248;-0.546;2023-02-11T04:20:47;13.13;10.17;
62631;PMS5003;48703;51.248;-0.546;2023-02-11T04:23:47;10.63;10.06;
62631;PMS5003;48703;51.248;-0.546;2023-02-11T04:26:49;12.67;11.22;
62631;PMS5003;48703;51.248;-0.546;2023-02-11T04:29:51;11.53;11.09;
62631;PMS5003;48703;51.248;-0.546;2023-02-11T04:32:52;10.77;9.87;
62631;PMS5003;48703;51.248;-0.546;2023-02-11T04:35:54;11.16;9.99;
62631;PMS5003;48703;51.248;-0.546;2023-02-11T04:38:55;11.48;10.29;
62631;PMS5003;48703;51.248;-0.546;2023-02-11T04:41:57;10.73;9.01;
62631;PMS5003;48703;51.248;-0.546;2023-02-11T04:44:59;13.07;10.17;
62631;PMS5003;48703;51.248;-0.546;2023-02-11T04:48:00;11.03;9.97;
62631;PMS5003;48703;51.248;-0.546;2023-02-11T04:51:02;11.46;9.19;
62631;PMS5003;48703;51.248;-0.546;2023-02-11T04:54:03;9.30;9.04;
62631;PMS5003;48703;51.248;-0.546;2023-02-11T04:57:05;12.80;9.97;
62631;PMS5003;48703;51.248;-0.546;2023-02-11T05:00:08;10.80;9.20;
62631;PMS5003;48703;51.248;-0.546;2023-02-11T05:03:09;10.63;9.17;
62631;PMS5003;48703;51.248;-0.546;2023-02-11T05:06:11;9.94;8.41;
62631;PMS5003;48703;51.248;-0.546;2023-02-11T05:09:12;9.73;8.23;
62631;PMS5003;48703;51.248;-0.546;2023-02-11T05:12:14;7.94;7.51;
62631;PMS5003;48703;51.248;-0.546;2023-02-11T05:15:16;11.47;9.93;
62631;PMS5003;48703;51.248;-0.546;2023-02-11T05:18:18;9.81;8.99;
62631;PMS5003;48703;51.248;-0.546;2023-02-11T05:21:19;8.00;7.00;
62631;PMS5003;48703;51.248;-0.546;2023-02-11T05:24:21;7.74;6.74;
62631;PMS5003;48703;51.248;-0.546;2023-02-11T05:27:23;8.37;7.36;
62631;PMS5003;48703;51.248;-0.546;2023-02-11T05:30:24;9.30;7.74;
62631;PMS5003;48703;51.248;-0.546;2023-02-11T05:33:26;9.51;7.36;
62631;PMS5003;48703;51.248;-0.546;2023-02-11T05:36:27;10.10;8.19;
62631;PMS5003;48703;51.248;-0.546;2023-02-11T05:39:29;8.01;7.66;
62631;PMS5003;48703;51.248;-0.546;2023-02-11T05:42:31;8.59;7.57;
62631;PMS5003;48703;51.248;-0.546;2023-02-11T05:45:33;8.86;6.76;
62631;PMS5003;48703;51.248;-0.546;2023-02-11T05:48:34;8.06;7.06;
62631;PMS5003;48703;51.248;-0.546;2023-02-11T05:51:36;9.23;8.51;
62631;PMS5003;48703;51.248;-0.546;2023-02-11T05:54:37;7.59;7.11;
62631;PMS5003;48703;51.248;-0.546;2023-02-11T05:57:39;8.59;7.77;
62631;PMS5003;48703;51.248;-0.546;2023-02-11T06:00:41;6.70;5.73;
62631;PMS5003;48703;51.248;-0.546;2023-02-11T06:03:42;7.16;6.04;
62631;PMS5003;48703;51.248;-0.546;2023-02-11T06:06:44;7.43;6.56;
62631;PMS5003;48703;51.248;-0.546;2023-02-11T06:09:46;5.59;5.54;
62631;PMS5003;48703;51.248;-0.546;2023-02-11T06:12:47;7.23;6.24;
62631;PMS5003;48703;51.248;-0.546;2023-02-11T06:15:54;7.91;6.67;
62631;PMS5003;48703;51.248;-0.546;2023-02-11T06:18:50;7.49;6.93;
62631;PMS5003;48703;51.248;-0.546;2023-02-11T06:21:52;8.14;7.56;
62631;PMS5003;48703;51.248;-0.546;2023-02-11T06:24:54;8.94;7.43;
62631;PMS5003;48703;51.248;-0.546;2023-02-11T06:27:56;8.16;6.96;
62631;PMS5003;48703;51.248;-0.546;2023-02-11T06:30:57;6.97;5.83;
62631;PMS5003;48703;51.248;-0.546;2023-02-11T06:33:59;7.96;6.33;
62631;PMS5003;48703;51.248;-0.546;2023-02-11T06:37:01;8.14;7.67;
62631;PMS5003;48703;51.248;-0.546;2023-02-11T06:40:03;8.70;7.59;
62631;PMS5003;48703;51.248;-0.546;2023-02-11T06:43:04;6.94;6.94;
62631;PMS5003;48703;51.248;-0.546;2023-02-11T06:46:06;6.43;5.69;
62631;PMS5003;48703;51.248;-0.546;2023-02-11T06:49:07;7.61;6.55;
62631;PMS5003;48703;51.248;-0.546;2023-02-11T06:52:09;7.67;7.07;
62631;PMS5003;48703;51.248;-0.546;2023-02-11T06:55:11;6.61;6.61;
62631;PMS5003;48703;51.248;-0.546;2023-02-11T06:58:12;5.76;5.07;
62631;PMS5003;48703;51.248;-0.546;2023-02-11T07:01:14;6.89;6.33;
62631;PMS5003;48703;51.248;-0.546;2023-02-11T07:04:16;5.56;5.50;
62631;PMS5003;48703;51.248;-0.546;2023-02-11T07:07:18;6.36;6.11;
62631;PMS5003;48703;51.248;-0.546;2023-02-11T07:10:19;5.69;5.30;
62631;PMS5003;48703;51.248;-0.546;2023-02-11T07:13:21;6.97;6.37;
62631;PMS5003;48703;51.248;-0.546;2023-02-11T07:16:22;6.21;5.70;
62631;PMS5003;48703;51.248;-0.546;2023-02-11T07:19:24;8.00;6.91;
62631;PMS5003;48703;51.248;-0.546;2023-02-11T07:22:25;6.97;6.36;
62631;PMS5003;48703;51.248;-0.546;2023-02-11T07:25:27;6.21;5.79;
62631;PMS5003;48703;51.248;-0.546;2023-02-11T07:28:29;7.40;6.24;
62631;PMS5003;48703;51.248;-0.546;2023-02-11T07:31:30;5.06;4.56;
62631;PMS5003;48703;51.248;-0.546;2023-02-11T07:34:32;5.06;4.31;
62631;PMS5003;48703;51.248;-0.546;2023-02-11T07:37:34;5.37;5.07;
62631;PMS5003;48703;51.248;-0.546;2023-02-11T07:40:35;6.87;4.94;
62631;PMS5003;48703;51.248;-0.546;2023-02-11T07:43:38;6.47;6.47;
62631;PMS5003;48703;51.248;-0.546;2023-02-11T07:46:39;7.54;6.69;
62631;PMS5003;48703;51.248;-0.546;2023-02-11T07:49:40;6.60;6.34;
62631;PMS5003;48703;51.248;-0.546;2023-02-11T07:52:42;5.40;4.79;
62631;PMS5003;48703;51.248;-0.546;2023-02-11T07:55:44;5.87;5.53;
62631;PMS5003;48703;51.248;-0.546;2023-02-11T07:58:46;6.30;5.16;
62631;PMS5003;48703;51.248;-0.546;2023-02-11T08:01:47;5.07;4.90;
62631;PMS5003;48703;51.248;-0.546;2023-02-11T08:04:49;5.51;4.83;
62631;PMS5003;48703;51.248;-0.546;2023-02-11T08:07:51;5.77;5.00;
62631;PMS5003;48703;51.248;-0.546;2023-02-11T08:10:52;3.97;3.97;
62631;PMS5003;48703;51.248;-0.546;2023-02-11T08:13:54;5.66;5.61;
62631;PMS5003;48703;51.248;-0.546;2023-02-11T08:16:56;5.53;3.90;
62631;PMS5003;48703;51.248;-0.546;2023-02-11T08:19:57;5.61;4.56;
62631;PMS5003;48703;51.248;-0.546;2023-02-11T08:22:59;6.04;5.20;
62631;PMS5003;48703;51.248;-0.546;2023-02-11T08:26:01;3.34;3.34;
62631;PMS5003;48703;51.248;-0.546;2023-02-11T08:29:05;4.69;4.13;
62631;PMS5003;48703;51.248;-0.546;2023-02-11T08:32:04;4.09;3.74;
62631;PMS5003;48703;51.248;-0.546;2023-02-11T08:35:06;4.11;4.11;
62631;PMS5003;48703;51.248;-0.546;2023-02-11T08:38:08;3.99;3.21;
62631;PMS5003;48703;51.248;-0.546;2023-02-11T08:41:09;4.14;4.14;
62631;PMS5003;48703;51.248;-0.546;2023-02-11T08:44:11;3.73;3.23;
62631;PMS5003;48703;51.248;-0.546;2023-02-11T08:47:12;3.01;2.89;
62631;PMS5003;48703;51.248;-0.546;2023-02-11T08:53:16;3.09;3.09;
62631;PMS5003;48703;51.248;-0.546;2023-02-11T08:56:18;3.00;2.77;
62631;PMS5003;48703;51.248;-0.546;2023-02-11T08:59:19;3.70;3.66;
62631;PMS5003;48703;51.248;-0.546;2023-02-11T09:02:21;2.69;2.51;
62631;PMS5003;48703;51.248;-0.546;2023-02-11T09:05:23;3.23;3.23;
62631;PMS5003;48703;51.248;-0.546;2023-02-11T09:08:24;4.46;3.86;
62631;PMS5003;48703;51.248;-0.546;2023-02-11T09:11:27;2.11;2.11;
62631;PMS5003;48703;51.248;-0.546;2023-02-11T09:14:28;2.51;2.51;
62631;PMS5003;48703;51.248;-0.546;2023-02-11T09:17:29;4.26;3.74;
62631;PMS5003;48703;51.248;-0.546;2023-02-11T09:20:31;4.09;3.27;
62631;PMS5003;48703;51.248;-0.546;2023-02-11T09:23:33;3.41;2.81;
62631;PMS5003;48703;51.248;-0.546;2023-02-11T09:26:35;3.06;2.96;
62631;PMS5003;48703;51.248;-0.546;2023-02-11T09:29:36;3.29;2.99;
62631;PMS5003;48703;51.248;-0.546;2023-02-11T09:32:38;3.80;3.80;
62631;PMS5003;48703;51.248;-0.546;2023-02-11T09:35:39;5.46;4.11;
62631;PMS5003;48703;51.248;-0.546;2023-02-11T09:38:41;5.01;4.13;
62631;PMS5003;48703;51.248;-0.546;2023-02-11T09:42:48;3.57;3.24;
62631;PMS5003;48703;51.248;-0.546;2023-02-11T09:44:44;3.27;3.27;
62631;PMS5003;48703;51.248;-0.546;2023-02-11T09:47:48;4.23;3.81;
62631;PMS5003;48703;51.248;-0.546;2023-02-11T09:50:49;3.73;3.36;
62631;PMS5003;48703;51.248;-0.546;2023-02-11T09:53:50;2.79;2.41;
62631;PMS5003;48703;51.248;-0.546;2023-02-11T09:56:51;3.90;3.90;
62631;PMS5003;48703;51.248;-0.546;2023-02-11T09:59:53;3.31;3.31;
62631;PMS5003;48703;51.248;-0.546;2023-02-11T10:03:01;3.33;3.07;
62631;PMS5003;48703;51.248;-0.546;2023-02-11T10:06:01;2.71;2.24;
62631;PMS5003;48703;51.248;-0.546;2023-02-11T10:09:00;2.71;2.07;
62631;PMS5003;48703;51.248;-0.546;2023-02-11T10:12:02;3.41;3.17;
62631;PMS5003;48703;51.248;-0.546;2023-02-11T10:15:05;3.26;3.14;
62631;PMS5003;48703;51.248;-0.546;2023-02-11T10:18:07;2.26;2.26;
62631;PMS5003;48703;51.248;-0.546;2023-02-11T10:21:07;2.24;1.69;
62631;PMS5003;48703;51.248;-0.546;2023-02-11T10:24:09;3.20;2.86;
62631;PMS5003;48703;51.248;-0.546;2023-02-11T10:27:11;2.06;2.06;
62631;PMS5003;48703;51.248;-0.546;2023-02-11T10:30:15;1.94;1.94;
62631;PMS5003;48703;51.248;-0.546;2023-02-11T10:33:13;3.29;3.21;
62631;PMS5003;48703;51.248;-0.546;2023-02-11T10:36:13;2.99;2.36;
62631;PMS5003;48703;51.248;-0.546;2023-02-11T10:39:15;3.51;2.84;
62631;PMS5003;48703;51.248;-0.546;2023-02-11T10:42:16;0.90;0.90;
62631;PMS5003;48703;51.248;-0.546;2023-02-11T10:45:21;3.03;2.81;
62631;PMS5003;48703;51.248;-0.546;2023-02-11T10:48:36;2.84;2.70;
62631;PMS5003;48703;51.248;-0.546;2023-02-11T10:51:22;3.29;3.29;
62631;PMS5003;48703;51.248;-0.546;2023-02-11T10:54:23;3.57;3.27;
62631;PMS5003;48703;51.248;-0.546;2023-02-11T10:57:25;4.03;2.84;
62631;PMS5003;48703;51.248;-0.546;2023-02-11T11:00:29;3.23;3.09;
62631;PMS5003;48703;51.248;-0.546;2023-02-11T11:03:28;4.67;3.30;
62631;PMS5003;48703;51.248;-0.546;2023-02-11T11:06:30;3.30;2.94;
62631;PMS5003;48703;51.248;-0.546;2023-02-11T11:09:37;2.91;2.44;
62631;PMS5003;48703;51.248;-0.546;2023-02-11T11:12:34;3.26;2.74;
62631;PMS5003;48703;51.248;-0.546;2023-02-11T11:15:34;2.60;2.60;
62631;PMS5003;48703;51.248;-0.546;2023-02-11T11:18:36;4.61;3.19;
62631;PMS5003;48703;51.248;-0.546;2023-02-11T11:21:39;2.04;2.04;
62631;PMS5003;48703;51.248;-0.546;2023-02-11T11:24:43;3.27;2.64;
62631;PMS5003;48703;51.248;-0.546;2023-02-11T11:27:41;3.60;3.54;
62631;PMS5003;48703;51.248;-0.546;2023-02-11T11:30:42;2.71;2.49;
62631;PMS5003;48703;51.248;-0.546;2023-02-11T11:33:44;3.53;2.80;
62631;PMS5003;48703;51.248;-0.546;2023-02-11T11:36:46;2.86;2.39;
62631;PMS5003;48703;51.248;-0.546;2023-02-11T11:39:49;2.56;2.56;
62631;PMS5003;48703;51.248;-0.546;2023-02-11T11:43:00;4.11;3.50;
62631;PMS5003;48703;51.248;-0.546;2023-02-11T11:45:51;2.47;2.04;
62631;PMS5003;48703;51.248;-0.546;2023-02-11T11:48:53;2.23;1.84;
62631;PMS5003;48703;51.248;-0.546;2023-02-11T11:51:56;3.80;2.81;
62631;PMS5003;48703;51.248;-0.546;2023-02-11T11:54:57;2.33;1.73;
62631;PMS5003;48703;51.248;-0.546;2023-02-11T11:57:57;2.01;2.01;
62631;PMS5003;48703;51.248;-0.546;2023-02-11T12:01:02;3.09;2.96;
62631;PMS5003;48703;51.248;-0.546;2023-02-11T12:04:04;1.84;1.84;
62631;PMS5003;48703;51.248;-0.546;2023-02-11T12:07:08;2.21;2.21;
62631;PMS5003;48703;51.248;-0.546;2023-02-11T12:10:22;2.81;2.56;
62631;PMS5003;48703;51.248;-0.546;2023-02-11T12:13:08;2.23;2.23;
62631;PMS5003;48703;51.248;-0.546;2023-02-11T12:16:10;2.26;2.04;
62631;PMS5003;48703;51.248;-0.546;2023-02-11T12:19:16;3.73;2.73;
62631;PMS5003;48703;51.248;-0.546;2023-02-11T12:22:11;3.43;2.66;
62631;PMS5003;48703;51.248;-0.546;2023-02-11T12:25:18;3.71;2.47;
62631;PMS5003;48703;51.248;-0.546;2023-02-11T12:28:18;3.09;2.71;
62631;PMS5003;48703;51.248;-0.546;2023-02-11T12:31:20;2.26;1.66;
62631;PMS5003;48703;51.248;-0.546;2023-02-11T12:34:36;3.40;2.61;
62631;PMS5003;48703;51.248;-0.546;2023-02-11T12:37:23;3.70;2.76;
62631;PMS5003;48703;51.248;-0.546;2023-02-11T12:40:21;5.07;5.07;
62631;PMS5003;48703;51.248;-0.546;2023-02-11T12:43:23;3.77;3.69;
62631;PMS5003;48703;51.248;-0.546;2023-02-11T12:46:31;3.59;3.59;
62631;PMS5003;48703;51.248;-0.546;2023-02-11T12:49:30;3.74;3.14;
62631;PMS5003;48703;51.248;-0.546;2023-02-11T12:52:31;4.60;3.91;
62631;PMS5003;48703;51.248;-0.546;2023-02-11T12:55:29;3.59;3.54;
62631;PMS5003;48703;51.248;-0.546;2023-02-11T12:58:31;4.84;3.57;
62631;PMS5003;48703;51.248;-0.546;2023-02-11T13:01:33;3.40;2.54;
62631;PMS5003;48703;51.248;-0.546;2023-02-11T13:04:34;3.70;3.44;
62631;PMS5003;48703;51.248;-0.546;2023-02-11T13:07:36;3.34;3.17;
62631;PMS5003;48703;51.248;-0.546;2023-02-11T13:10:38;4.59;4.59;
62631;PMS5003;48703;51.248;-0.546;2023-02-11T13:13:45;5.04;4.21;
62631;PMS5003;48703;51.248;-0.546;2023-02-11T13:16:40;3.97;3.34;
62631;PMS5003;48703;51.248;-0.546;2023-02-11T13:19:43;3.64;3.64;
62631;PMS5003;48703;51.248;-0.546;2023-02-11T13:22:45;4.99;4.39;
62631;PMS5003;48703;51.248;-0.546;2023-02-11T13:25:47;5.03;4.33;
62631;PMS5003;48703;51.248;-0.546;2023-02-11T13:28:47;4.73;3.83;
62631;PMS5003;48703;51.248;-0.546;2023-02-11T13:31:53;3.61;2.91;
62631;PMS5003;48703;51.248;-0.546;2023-02-11T13:34:53;4.33;3.83;
62631;PMS5003;48703;51.248;-0.546;2023-02-11T13:37:52;5.59;4.90;
62631;PMS5003;48703;51.248;-0.546;2023-02-11T13:40:58;4.93;4.29;
62631;PMS5003;48703;51.248;-0.546;2023-02-11T13:43:57;4.86;4.09;
62631;PMS5003;48703;51.248;-0.546;2023-02-11T13:46:58;5.56;4.01;
62631;PMS5003;48703;51.248;-0.546;2023-02-11T13:49:58;6.01;5.03;
62631;PMS5003;48703;51.248;-0.546;2023-02-11T13:53:00;4.43;4.43;
62631;PMS5003;48703;51.248;-0.546;2023-02-11T13:56:04;5.46;4.20;
62631;PMS5003;48703;51.248;-0.546;2023-02-11T13:58:15;7.24;5.90;
62631;PMS5003;48703;51.248;-0.546;2023-02-11T14:01:04;6.99;6.51;
62631;PMS5003;48703;51.248;-0.546;2023-02-11T14:04:18;6.90;6.07;
62631;PMS5003;48703;51.248;-0.546;2023-02-11T14:07:24;5.17;5.09;
62631;PMS5003;48703;51.248;-0.546;2023-02-11T14:10:33;4.89;4.89;
62631;PMS5003;48703;51.248;-0.546;2023-02-11T14:13:17;4.40;4.40;
62631;PMS5003;48703;51.248;-0.546;2023-02-11T14:16:13;4.17;4.17;
62631;PMS5003;48703;51.248;-0.546;2023-02-11T14:19:14;6.54;5.81;
62631;PMS5003;48703;51.248;-0.546;2023-02-11T14:22:16;4.50;4.50;
62631;PMS5003;48703;51.248;-0.546;2023-02-11T14:25:19;6.00;5.47;
62631;PMS5003;48703;51.248;-0.546;2023-02-11T14:28:20;6.76;5.93;
62631;PMS5003;48703;51.248;-0.546;2023-02-11T14:31:20;4.94;4.94;
62631;PMS5003;48703;51.248;-0.546;2023-02-11T14:34:31;4.27;4.21;
62631;PMS5003;48703;51.248;-0.546;2023-02-11T14:37:26;7.57;6.20;
62631;PMS5003;48703;51.248;-0.546;2023-02-11T14:40:26;4.77;4.09;
62631;PMS5003;48703;51.248;-0.546;2023-02-11T14:43:27;6.06;5.06;
62631;PMS5003;48703;51.248;-0.546;2023-02-11T14:46:28;6.26;6.13;
62631;PMS5003;48703;51.248;-0.546;2023-02-11T14:49:30;7.46;6.77;
62631;PMS5003;48703;51.248;-0.546;2023-02-11T14:52:31;8.00;7.44;
62631;PMS5003;48703;51.248;-0.546;2023-02-11T14:55:33;6.31;6.31;
62631;PMS5003;48703;51.248;-0.546;2023-02-11T14:58:34;7.13;7.13;
62631;PMS5003;48703;51.248;-0.546;2023-02-11T15:01:39;7.37;7.09;
62631;PMS5003;48703;51.248;-0.546;2023-02-11T15:04:37;7.83;6.77;
62631;PMS5003;48703;51.248;-0.546;2023-02-11T15:07:41;9.90;8.91;
62631;PMS5003;48703;51.248;-0.546;2023-02-11T15:10:41;5.04;4.53;
62631;PMS5003;48703;51.248;-0.546;2023-02-11T15:13:42;5.83;5.27;
62631;PMS5003;48703;51.248;-0.546;2023-02-11T15:16:44;8.06;6.81;
62631;PMS5003;48703;51.248;-0.546;2023-02-11T15:19:46;11.35;10.57;
62631;PMS5003;48703;51.248;-0.546;2023-02-11T15:22:48;12.23;10.13;
62631;PMS5003;48703;51.248;-0.546;2023-02-11T15:25:49;5.24;4.66;
62631;PMS5003;48703;51.248;-0.546;2023-02-11T15:28:50;6.79;5.19;
62631;PMS5003;48703;51.248;-0.546;2023-02-11T15:32:11;5.61;5.26;
62631;PMS5003;48703;51.248;-0.546;2023-02-11T15:34:54;5.93;4.80;
62631;PMS5003;48703;51.248;-0.546;2023-02-11T15:37:55;7.77;7.38;
62631;PMS5003;48703;51.248;-0.546;2023-02-11T15:40:57;5.80;5.33;
62631;PMS5003;48703;51.248;-0.546;2023-02-11T15:43:58;5.46;5.46;
62631;PMS5003;48703;51.248;-0.546;2023-02-11T15:47:00;4.47;4.00;
62631;PMS5003;48703;51.248;-0.546;2023-02-11T15:50:02;5.27;4.36;
62631;PMS5003;48703;51.248;-0.546;2023-02-11T15:53:04;7.06;6.26;
62631;PMS5003;48703;51.248;-0.546;2023-02-11T15:56:09;5.04;4.67;
62631;PMS5003;48703;51.248;-0.546;2023-02-11T15:59:09;6.81;6.19;
62631;PMS5003;48703;51.248;-0.546;2023-02-11T16:02:12;4.97;4.97;
62631;PMS5003;48703;51.248;-0.546;2023-02-11T16:05:22;5.99;5.06;
62631;PMS5003;48703;51.248;-0.546;2023-02-11T16:08:19;5.80;5.49;
62631;PMS5003;48703;51.248;-0.546;2023-02-11T16:11:23;6.50;4.99;
62631;PMS5003;48703;51.248;-0.546;2023-02-11T16:14:22;6.74;6.74;
62631;PMS5003;48703;51.248;-0.546;2023-02-11T16:17:22;5.10;4.91;
62631;PMS5003;48703;51.248;-0.546;2023-02-11T16:20:18;6.61;5.83;
62631;PMS5003;48703;51.248;-0.546;2023-02-11T16:23:21;5.90;5.90;
62631;PMS5003;48703;51.248;-0.546;2023-02-11T16:26:23;5.99;4.86;
62631;PMS5003;48703;51.248;-0.546;2023-02-11T16:29:24;5.79;4.87;
62631;PMS5003;48703;51.248;-0.546;2023-02-11T16:32:25;6.61;5.86;
62631;PMS5003;48703;51.248;-0.546;2023-02-11T16:35:26;8.00;7.24;
62631;PMS5003;48703;51.248;-0.546;2023-02-11T16:38:28;5.19;4.86;
62631;PMS5003;48703;51.248;-0.546;2023-02-11T16:41:29;5.99;5.37;
62631;PMS5003;48703;51.248;-0.546;2023-02-11T16:44:31;4.03;3.90;
62631;PMS5003;48703;51.248;-0.546;2023-02-11T16:47:33;4.93;4.43;
62631;PMS5003;48703;51.248;-0.546;2023-02-11T16:50:35;3.70;3.50;
62631;PMS5003;48703;51.248;-0.546;2023-02-11T16:53:36;4.59;4.59;
62631;PMS5003;48703;51.248;-0.546;2023-02-11T16:56:38;4.57;3.90;
62631;PMS5003;48703;51.248;-0.546;2023-02-11T16:59:39;3.33;3.33;
62631;PMS5003;48703;51.248;-0.546;2023-02-11T17:02:41;4.70;4.70;
62631;PMS5003;48703;51.248;-0.546;2023-02-11T17:05:43;3.66;3.46;
62631;PMS5003;48703;51.248;-0.546;2023-02-11T17:08:44;5.29;4.53;
62631;PMS5003;48703;51.248;-0.546;2023-02-11T17:11:46;4.91;4.61;
62631;PMS5003;48703;51.248;-0.546;2023-02-11T17:14:48;4.04;4.04;
62631;PMS5003;48703;51.248;-0.546;2023-02-11T17:17:49;4.67;3.81;
62631;PMS5003;48703;51.248;-0.546;2023-02-11T17:20:51;4.76;4.73;
62631;PMS5003;48703;51.248;-0.546;2023-02-11T17:23:52;6.14;6.06;
62631;PMS5003;48703;51.248;-0.546;2023-02-11T17:26:54;7.52;7.33;
62631;PMS5003;48703;51.248;-0.546;2023-02-11T17:29:56;6.29;5.74;
62631;PMS5003;48703;51.248;-0.546;2023-02-11T17:32:57;7.29;7.07;
62631;PMS5003;48703;51.248;-0.546;2023-02-11T17:36:00;8.10;7.16;
62631;PMS5003;48703;51.248;-0.546;2023-02-11T17:39:01;8.66;7.10;
62631;PMS5003;48703;51.248;-0.546;2023-02-11T17:42:02;9.21;8.47;
62631;PMS5003;48703;51.248;-0.546;2023-02-11T17:45:04;9.41;9.29;
62631;PMS5003;48703;51.248;-0.546;2023-02-11T17:48:06;9.19;8.89;
62631;PMS5003;48703;51.248;-0.546;2023-02-11T17:54:10;9.09;8.11;
62631;PMS5003;48703;51.248;-0.546;2023-02-11T17:57:10;14.94;13.66;
62631;PMS5003;48703;51.248;-0.546;2023-02-11T18:00:12;17.38;14.45;
62631;PMS5003;48703;51.248;-0.546;2023-02-11T18:03:13;16.22;14.83;
62631;PMS5003;48703;51.248;-0.546;2023-02-11T18:06:14;10.93;10.34;
62631;PMS5003;48703;51.248;-0.546;2023-02-11T18:09:16;13.34;12.14;
62631;PMS5003;48703;51.248;-0.546;2023-02-11T18:12:18;13.53;12.06;
62631;PMS5003;48703;51.248;-0.546;2023-02-11T18:15:20;17.73;16.31;
62631;PMS5003;48703;51.248;-0.546;2023-02-11T18:18:21;19.35;18.03;
62631;PMS5003;48703;51.248;-0.546;2023-02-11T18:21:23;19.94;18.23;
62631;PMS5003;48703;51.248;-0.546;2023-02-11T18:24:25;17.00;14.94;